createdAt,value
2018-07-05T00:00:48.050Z,64.21
2018-07-05T00:03:27.658Z,65.76
2018-07-05T00:06:07.279Z,66.34
2018-07-05T00:08:46.842Z,66.23
2018-07-05T00:11:26.438Z,66.53
2018-07-05T00:14:06.269Z,67.47
2018-07-05T00:16:45.995Z,68.46
2018-07-05T00:19:25.675Z,68.45
2018-07-05T00:22:05.394Z,68.52
2018-07-05T00:24:45.234Z,68.75
2018-07-05T00:27:25.054Z,68.47
2018-07-05T00:30:04.773Z,68.52
2018-07-05T00:32:44.681Z,69.43
2018-07-05T00:35:24.321Z,69.04
2018-07-05T00:38:04.154Z,68.96
2018-07-05T00:40:43.836Z,68.84
2018-07-05T00:43:23.558Z,68.92
2018-07-05T00:46:03.286Z,69.16
2018-07-05T00:48:43.146Z,68.49
2018-07-05T00:51:23.019Z,67.79
2018-07-05T00:54:02.772Z,68.79
2018-07-05T00:56:42.485Z,67.93
2018-07-05T00:59:22.178Z,67.08
2018-07-05T01:02:01.803Z,68.73
2018-07-05T01:04:41.479Z,68.92
2018-07-05T01:07:21.249Z,68.28
2018-07-05T01:10:01.046Z,68.20
2018-07-05T01:12:40.902Z,66.95
2018-07-05T01:15:20.590Z,67.50
2018-07-05T01:18:00.224Z,68.88
2018-07-05T01:20:39.894Z,69.37
2018-07-05T01:23:19.693Z,69.44
2018-07-05T01:25:59.431Z,69.66
2018-07-05T01:28:39.112Z,68.81
2018-07-05T01:31:18.811Z,68.62
2018-07-05T01:33:58.413Z,69.53
2018-07-05T01:36:38.050Z,71.09
2018-07-05T01:39:17.827Z,70.31
2018-07-05T01:41:57.537Z,70.07
2018-07-05T01:44:37.265Z,69.59
2018-07-05T01:47:17.031Z,69.72
2018-07-05T01:49:56.797Z,69.78
2018-07-05T01:52:39.042Z,69.12
2018-07-05T01:55:18.679Z,69.18
2018-07-05T01:57:58.570Z,68.72
2018-07-05T02:00:38.649Z,69.64
2018-07-05T02:03:18.302Z,69.35
2018-07-05T02:05:57.906Z,69.12
2018-07-05T02:08:37.523Z,69.39
2018-07-05T02:11:17.223Z,68.83
2018-07-05T02:13:56.982Z,68.18
2018-07-05T02:16:36.748Z,68.69
2018-07-05T02:19:16.435Z,68.81
2018-07-05T02:21:56.115Z,68.10
2018-07-05T02:24:35.884Z,68.31
2018-07-05T02:27:15.454Z,68.68
2018-07-05T02:29:55.058Z,69.21
2018-07-05T02:32:34.572Z,70.13
2018-07-05T02:35:14.235Z,70.82
2018-07-05T02:37:59.493Z,69.83
2018-07-05T02:40:39.012Z,70.01
2018-07-05T02:43:18.597Z,70.67
2018-07-05T02:45:58.193Z,70.71
2018-07-05T02:48:37.935Z,69.67
2018-07-05T02:51:17.670Z,69.70
2018-07-05T02:53:57.189Z,69.47
2018-07-05T02:56:36.919Z,69.67
2018-07-05T02:59:16.663Z,69.83
2018-07-05T03:01:56.506Z,70.02
2018-07-05T03:04:36.310Z,68.80
2018-07-05T03:07:15.964Z,69.71
2018-07-05T03:09:55.774Z,69.64
2018-07-05T03:12:35.272Z,69.61
2018-07-05T03:15:14.835Z,68.76
2018-07-05T03:17:54.549Z,69.69
2018-07-05T03:20:34.271Z,69.39
2018-07-05T03:23:14.031Z,69.13
2018-07-05T03:25:53.853Z,68.92
2018-07-05T03:28:33.739Z,70.07
2018-07-05T03:31:13.514Z,70.22
2018-07-05T03:33:53.330Z,71.82
2018-07-05T03:36:33.159Z,72.31
2018-07-05T03:39:12.982Z,71.83
2018-07-05T03:41:52.763Z,72.62
2018-07-05T03:44:32.363Z,72.33
2018-07-05T03:47:11.904Z,74.43
2018-07-05T03:49:51.442Z,72.72
2018-07-05T03:52:31.140Z,73.90
2018-07-05T03:55:10.910Z,72.81
2018-07-05T03:57:50.715Z,72.06
2018-07-05T04:00:30.458Z,73.18
2018-07-05T04:03:10.223Z,72.75
2018-07-05T04:05:49.994Z,72.69
2018-07-05T04:08:29.602Z,72.98
2018-07-05T04:11:09.290Z,74.41
2018-07-05T04:13:48.903Z,74.73
2018-07-05T04:16:28.678Z,75.27
2018-07-05T04:19:08.435Z,74.89
2018-07-05T04:21:48.190Z,76.04
2018-07-05T04:24:27.955Z,76.48
2018-07-05T04:27:07.548Z,76.17
2018-07-05T04:29:47.128Z,75.56
2018-07-05T04:32:26.914Z,74.24
2018-07-05T04:35:06.487Z,73.07
2018-07-05T04:37:46.137Z,73.01
2018-07-05T04:40:25.519Z,72.32
2018-07-05T04:43:05.283Z,71.46
2018-07-05T04:45:44.977Z,71.36
2018-07-05T04:48:24.498Z,71.15
2018-07-05T04:51:03.937Z,71.37
2018-07-05T04:53:43.545Z,69.67
2018-07-05T04:56:28.061Z,69.73
2018-07-05T04:59:07.610Z,69.90
2018-07-05T05:01:47.420Z,68.73
2018-07-05T05:04:27.218Z,68.02
2018-07-05T05:07:06.967Z,67.62
2018-07-05T05:09:46.661Z,67.82
2018-07-05T05:12:26.212Z,67.42
2018-07-05T05:15:05.904Z,66.38
2018-07-05T05:17:45.665Z,65.61
2018-07-05T05:20:25.211Z,65.95
2018-07-05T05:23:04.987Z,65.78
2018-07-05T05:25:45.603Z,65.01
2018-07-05T05:28:25.356Z,63.61
2018-07-05T05:31:05.926Z,64.44
2018-07-05T05:33:45.658Z,64.97
2018-07-05T05:36:25.425Z,64.59
2018-07-05T05:39:05.538Z,64.52
2018-07-05T05:41:45.057Z,63.45
2018-07-05T05:44:24.796Z,63.29
2018-07-05T05:47:06.530Z,63.51
2018-07-05T05:49:46.302Z,63.39
2018-07-05T05:52:26.020Z,62.30
2018-07-05T05:55:06.094Z,62.48
2018-07-05T05:57:46.211Z,62.82
2018-07-05T06:00:26.015Z,61.70
2018-07-05T06:03:05.861Z,60.68
2018-07-05T06:05:45.490Z,61.20
2018-07-05T06:08:26.010Z,59.64
2018-07-05T06:11:05.882Z,58.59
2018-07-05T06:13:45.598Z,58.15
2018-07-05T06:16:25.247Z,59.15
2018-07-05T06:19:04.915Z,58.21
2018-07-05T06:21:44.571Z,58.65
2018-07-05T06:24:24.354Z,58.90
2018-07-05T06:27:03.915Z,59.37
2018-07-05T06:29:43.582Z,58.65
2018-07-05T06:32:23.214Z,58.76
2018-07-05T06:35:02.778Z,59.08
2018-07-05T06:37:42.437Z,59.50
2018-07-05T06:40:21.992Z,59.06
2018-07-05T06:43:01.435Z,58.81
2018-07-05T06:45:41.143Z,59.25
2018-07-05T06:48:20.791Z,58.26
2018-07-05T06:51:00.330Z,58.75
2018-07-05T06:53:39.997Z,59.25
2018-07-05T06:56:19.840Z,58.71
2018-07-05T06:58:59.557Z,58.38
2018-07-05T07:01:39.390Z,58.31
2018-07-05T07:04:18.998Z,58.47
2018-07-05T07:06:58.804Z,57.44
2018-07-05T07:09:38.496Z,58.17
2018-07-05T07:12:18.098Z,57.35
2018-07-05T07:14:57.762Z,57.94
2018-07-05T07:17:37.413Z,58.97
2018-07-05T07:20:16.943Z,58.13
2018-07-05T07:22:56.516Z,57.57
2018-07-05T07:25:36.118Z,56.55
2018-07-05T07:28:15.618Z,57.19
2018-07-05T07:30:55.443Z,58.12
2018-07-05T07:33:35.203Z,57.52
2018-07-05T07:36:15.010Z,57.49
2018-07-05T07:38:54.797Z,57.27
2018-07-05T07:41:34.408Z,56.97
2018-07-05T07:44:01.648Z,57.73
2018-07-05T07:46:28.872Z,58.40
2018-07-05T07:48:56.076Z,58.64
2018-07-05T07:51:23.931Z,57.73
2018-07-05T07:53:51.135Z,58.33
2018-07-05T07:56:18.458Z,57.04
2018-07-05T07:58:45.646Z,57.60
2018-07-05T08:01:12.851Z,56.50
2018-07-05T08:03:40.820Z,56.45
2018-07-05T08:06:08.025Z,56.45
2018-07-05T08:08:35.251Z,56.33
2018-07-05T08:11:02.443Z,56.72
2018-07-05T08:13:29.694Z,56.22
2018-07-05T08:15:56.946Z,56.91
2018-07-05T08:18:24.174Z,55.93
2018-07-05T08:20:51.361Z,55.63
2018-07-05T08:23:18.587Z,56.12
2018-07-05T08:25:45.770Z,56.14
2018-07-05T08:28:13.030Z,54.73
2018-07-05T08:30:40.214Z,55.54
2018-07-05T08:33:07.437Z,54.93
2018-07-05T08:35:34.624Z,54.04
2018-07-05T08:38:01.846Z,53.75
2018-07-05T08:40:29.042Z,53.70
2018-07-05T08:42:56.271Z,53.07
2018-07-05T08:45:23.466Z,53.23
2018-07-05T08:47:50.681Z,52.22
2018-07-05T08:50:17.863Z,52.53
2018-07-05T08:52:45.082Z,51.90
2018-07-05T08:55:12.266Z,51.95
2018-07-05T08:57:39.483Z,50.94
2018-07-05T09:00:07.262Z,51.87
2018-07-05T09:02:34.486Z,51.60
2018-07-05T09:05:01.671Z,50.71
2018-07-05T09:07:28.894Z,50.11
2018-07-05T09:09:56.135Z,50.83
2018-07-05T09:12:23.343Z,50.57
2018-07-05T09:14:50.539Z,50.34
2018-07-05T09:17:17.769Z,49.66
2018-07-05T09:19:44.955Z,49.46
2018-07-05T09:22:12.147Z,49.47
2018-07-05T09:24:39.388Z,49.55
2018-07-05T09:27:06.570Z,48.28
2018-07-05T09:29:33.786Z,46.84
2018-07-05T09:32:00.962Z,47.51
2018-07-05T09:34:28.182Z,46.50
2018-07-05T09:36:55.361Z,46.18
2018-07-05T09:39:22.578Z,44.40
2018-07-05T09:41:49.771Z,44.67
2018-07-05T09:44:17.586Z,44.62
2018-07-05T09:46:44.766Z,43.45
2018-07-05T09:49:12.196Z,44.51
2018-07-05T09:51:39.378Z,42.78
2018-07-05T09:54:06.590Z,43.27
2018-07-05T09:56:33.787Z,43.57
2018-07-05T09:59:01.010Z,43.43
2018-07-05T10:01:28.291Z,43.84
2018-07-05T10:03:55.516Z,43.37
2018-07-05T10:06:22.700Z,43.19
2018-07-05T10:08:49.923Z,43.32
2018-07-05T10:11:17.110Z,43.49
2018-07-05T10:13:44.447Z,43.01
2018-07-05T10:16:11.527Z,43.94
2018-07-05T10:18:38.756Z,41.99
2018-07-05T10:21:05.959Z,43.60
2018-07-05T10:23:33.187Z,42.92
2018-07-05T10:26:00.374Z,43.18
2018-07-05T10:28:27.607Z,42.87
2018-07-05T10:31:07.204Z,42.59
2018-07-05T10:33:45.445Z,42.17
2018-07-05T10:36:12.630Z,42.10
2018-07-05T10:38:39.851Z,41.25
2018-07-05T10:41:19.334Z,41.94
2018-07-05T10:43:58.983Z,42.41
2018-07-05T10:46:38.664Z,44.14
2018-07-05T10:49:18.310Z,42.55
2018-07-05T10:51:58.078Z,42.72
2018-07-05T10:54:37.713Z,42.39
2018-07-05T10:57:17.654Z,42.73
2018-07-05T10:59:57.421Z,42.58
2018-07-05T11:02:37.202Z,41.75
2018-07-05T11:05:16.934Z,41.19
2018-07-05T11:07:56.569Z,40.78
2018-07-05T11:10:36.384Z,41.31
2018-07-05T11:13:15.912Z,42.81
2018-07-05T11:15:55.586Z,43.02
2018-07-05T11:18:35.262Z,43.37
2018-07-05T11:21:14.887Z,44.01
2018-07-05T11:23:54.657Z,43.85
2018-07-05T11:26:34.354Z,43.38
2018-07-05T11:29:14.091Z,44.29
2018-07-05T11:31:53.835Z,43.23
2018-07-05T11:34:33.607Z,43.53
2018-07-05T11:37:13.334Z,43.33
2018-07-05T11:39:53.044Z,43.68
2018-07-05T11:42:33.063Z,43.67
2018-07-05T11:45:12.694Z,43.64
2018-07-05T11:47:52.504Z,43.48
2018-07-05T11:50:32.096Z,42.60
2018-07-05T11:53:11.702Z,41.80
2018-07-05T11:55:51.397Z,43.05
2018-07-05T11:58:31.226Z,41.63
2018-07-05T12:01:10.864Z,42.86
2018-07-05T12:03:50.679Z,43.23
2018-07-05T12:06:30.310Z,43.10
2018-07-05T12:09:10.395Z,41.79
2018-07-05T12:11:50.711Z,43.75
2018-07-05T12:14:30.357Z,43.21
2018-07-05T12:17:10.179Z,43.45
2018-07-05T12:19:49.818Z,43.54
2018-07-05T12:22:29.486Z,43.35
2018-07-05T12:25:09.131Z,42.89
2018-07-05T12:27:49.018Z,42.96
2018-07-05T12:30:28.841Z,42.31
2018-07-05T12:33:08.423Z,43.12
2018-07-05T12:35:48.185Z,42.01
2018-07-05T12:38:27.640Z,42.40
2018-07-05T12:41:07.310Z,42.25
2018-07-05T12:43:47.033Z,43.04
2018-07-05T12:46:26.746Z,41.83
2018-07-05T12:49:06.643Z,41.77
2018-07-05T12:51:46.204Z,42.25
2018-07-05T12:54:25.904Z,42.67
2018-07-05T12:57:05.746Z,41.95
2018-07-05T12:59:45.367Z,41.16
2018-07-05T13:02:25.262Z,41.39
2018-07-05T13:05:04.819Z,42.79
2018-07-05T13:07:44.790Z,41.82
2018-07-05T13:10:24.356Z,42.84
2018-07-05T13:13:03.928Z,41.95
2018-07-05T13:15:43.738Z,43.24
2018-07-05T13:18:23.452Z,42.93
2018-07-05T13:21:03.065Z,43.14
2018-07-05T13:23:42.786Z,42.78
2018-07-05T13:26:22.539Z,42.48
2018-07-05T13:29:02.254Z,44.43
2018-07-05T13:31:41.982Z,44.07
2018-07-05T13:34:21.719Z,44.86
2018-07-05T13:37:01.488Z,44.29
2018-07-05T13:39:41.175Z,44.66
2018-07-05T13:42:20.995Z,44.64
2018-07-05T13:45:00.674Z,46.09
2018-07-05T13:47:40.272Z,47.07
2018-07-05T13:50:21.081Z,46.88
2018-07-05T13:53:00.654Z,44.72
2018-07-05T13:55:40.310Z,46.63
2018-07-05T13:58:19.928Z,45.71
2018-07-05T14:00:59.467Z,46.07
2018-07-05T14:03:39.233Z,44.66
2018-07-05T14:06:18.950Z,44.99
2018-07-05T14:08:58.746Z,44.10
2018-07-05T14:11:38.376Z,44.20
2018-07-05T14:14:18.077Z,43.48
2018-07-05T14:16:57.639Z,44.86
2018-07-05T14:19:37.414Z,43.38
2018-07-05T14:22:17.359Z,44.52
2018-07-05T14:24:56.990Z,44.05
2018-07-05T14:27:36.855Z,46.25
2018-07-05T14:30:16.678Z,46.83
2018-07-05T14:32:56.448Z,46.39
2018-07-05T14:35:36.198Z,45.86
2018-07-05T14:38:15.901Z,45.68
2018-07-05T14:40:55.581Z,44.72
2018-07-05T14:43:35.372Z,44.19
2018-07-05T14:46:15.103Z,43.64
2018-07-05T14:48:54.924Z,43.97
2018-07-05T14:51:34.652Z,44.66
2018-07-05T14:54:14.348Z,43.44
2018-07-05T14:56:53.974Z,43.44
2018-07-05T14:59:33.714Z,43.36
2018-07-05T15:02:13.709Z,43.44
2018-07-05T15:04:53.595Z,43.00
2018-07-05T15:07:33.286Z,43.14
2018-07-05T15:10:13.224Z,43.87
2018-07-05T15:12:53.091Z,43.56
2018-07-05T15:15:32.982Z,43.79
2018-07-05T15:18:12.789Z,44.10
2018-07-05T15:20:52.559Z,43.35
2018-07-05T15:23:32.305Z,43.86
2018-07-05T15:26:12.184Z,42.33
2018-07-05T15:28:52.021Z,42.92
2018-07-05T15:31:31.811Z,42.74
2018-07-05T15:34:11.871Z,40.71
2018-07-05T15:36:51.584Z,41.11
2018-07-05T15:39:31.359Z,40.57
2018-07-05T15:42:11.319Z,41.59
2018-07-05T15:44:51.236Z,42.35
2018-07-05T15:47:31.088Z,41.35
2018-07-05T15:50:10.863Z,42.12
2018-07-05T15:52:50.473Z,41.46
2018-07-05T15:55:30.193Z,41.68
2018-07-05T15:58:09.883Z,41.17
2018-07-05T16:00:49.498Z,41.07
2018-07-05T16:03:29.031Z,41.46
2018-07-05T16:06:08.706Z,42.09
2018-07-05T16:08:48.250Z,42.11
2018-07-05T16:11:27.830Z,42.84
2018-07-05T16:14:07.639Z,42.88
2018-07-05T16:16:47.247Z,42.64
2018-07-05T16:19:26.908Z,43.55
2018-07-05T16:22:06.645Z,43.39
2018-07-05T16:24:46.306Z,44.24
2018-07-05T16:27:25.886Z,44.70
2018-07-05T16:30:05.435Z,44.32
2018-07-05T16:32:45.066Z,42.96
2018-07-05T16:35:25.004Z,43.39
2018-07-05T16:38:05.010Z,43.93
2018-07-05T16:40:45.059Z,43.83
2018-07-05T16:43:24.948Z,45.02
2018-07-05T16:46:04.703Z,44.43
2018-07-05T16:48:44.909Z,44.24
2018-07-05T16:51:24.770Z,44.65
2018-07-05T16:54:04.509Z,45.42
2018-07-05T16:56:44.262Z,45.33
2018-07-05T16:59:24.166Z,45.20
2018-07-05T17:02:03.856Z,45.96
2018-07-05T17:04:43.725Z,45.87
2018-07-05T17:07:23.512Z,45.76
2018-07-05T17:10:03.250Z,47.04
2018-07-05T17:12:42.976Z,46.85
2018-07-05T17:15:22.619Z,46.15
2018-07-05T17:18:02.377Z,47.01
2018-07-05T17:20:42.159Z,47.24
2018-07-05T17:23:22.176Z,48.80
2018-07-05T17:26:01.856Z,48.36
2018-07-05T17:28:41.498Z,48.08
2018-07-05T17:31:21.205Z,48.24
2018-07-05T17:34:00.820Z,47.22
2018-07-05T17:36:40.590Z,47.71
2018-07-05T17:39:20.367Z,47.79
2018-07-05T17:42:00.085Z,47.52
2018-07-05T17:44:39.906Z,47.80
2018-07-05T17:47:19.594Z,47.65
2018-07-05T17:49:59.410Z,48.09
2018-07-05T17:52:38.960Z,47.83
2018-07-05T17:55:18.989Z,47.57
2018-07-05T17:57:58.937Z,47.41
2018-07-05T18:00:41.698Z,48.60
2018-07-05T18:03:22.400Z,48.25
2018-07-05T18:06:02.190Z,48.14
2018-07-05T18:08:41.912Z,49.31
2018-07-05T18:11:21.573Z,48.06
2018-07-05T18:14:02.406Z,48.10
2018-07-05T18:16:42.261Z,47.77
2018-07-05T18:19:22.281Z,47.76
2018-07-05T18:22:02.914Z,48.16
2018-07-05T18:24:42.742Z,48.78
2018-07-05T18:27:25.037Z,48.12
2018-07-05T18:30:04.979Z,48.20
2018-07-05T18:32:44.748Z,48.53
2018-07-05T18:35:24.518Z,47.99
2018-07-05T18:38:04.363Z,48.29
2018-07-05T18:40:44.314Z,48.32
2018-07-05T18:43:23.768Z,48.03
2018-07-05T18:46:12.558Z,47.58
2018-07-05T18:48:52.041Z,48.69
2018-07-05T18:51:31.621Z,47.94
2018-07-05T18:54:11.318Z,48.80
2018-07-05T18:56:51.140Z,48.06
2018-07-05T18:59:31.030Z,47.97
2018-07-05T19:02:10.655Z,47.66
2018-07-05T19:04:50.358Z,48.29
2018-07-05T19:07:30.042Z,48.46
2018-07-05T19:10:09.851Z,48.48
2018-07-05T19:12:49.511Z,48.68
2018-07-05T19:15:29.386Z,48.85
2018-07-05T19:18:09.022Z,48.39
2018-07-05T19:20:48.749Z,48.55
2018-07-05T19:23:28.438Z,48.19
2018-07-05T19:26:08.423Z,48.66
2018-07-05T19:28:47.971Z,48.54
2018-07-05T19:31:29.518Z,49.01
2018-07-05T19:34:09.476Z,49.08
2018-07-05T19:36:49.206Z,49.06
2018-07-05T19:39:28.850Z,49.87
2018-07-05T19:42:08.377Z,49.73
2018-07-05T19:44:48.114Z,49.15
2018-07-05T19:47:27.924Z,48.70
2018-07-05T19:50:07.822Z,47.92
2018-07-05T19:52:47.569Z,48.56
2018-07-05T19:55:27.138Z,48.47
2018-07-05T19:58:07.702Z,47.96
2018-07-05T20:00:47.380Z,48.78
2018-07-05T20:03:27.250Z,48.35
2018-07-05T20:06:06.982Z,48.77
2018-07-05T20:08:46.685Z,49.39
2018-07-05T20:11:26.453Z,49.00
2018-07-05T20:14:06.138Z,49.61
2018-07-05T20:16:45.778Z,49.74
2018-07-05T20:19:25.558Z,50.69
2018-07-05T20:22:09.599Z,51.28
2018-07-05T20:24:49.313Z,51.50
2018-07-05T20:27:29.057Z,52.92
2018-07-05T20:30:08.732Z,52.61
2018-07-05T20:32:48.704Z,53.62
2018-07-05T20:35:28.572Z,54.29
2018-07-05T20:38:08.078Z,55.06
2018-07-05T20:40:47.685Z,55.33
2018-07-05T20:43:27.307Z,56.26
2018-07-05T20:46:06.986Z,56.84
2018-07-05T20:48:46.619Z,56.94
2018-07-05T20:51:26.253Z,57.67
2018-07-05T20:54:06.102Z,58.17
2018-07-05T20:56:45.870Z,58.69
2018-07-05T20:59:25.601Z,58.23
2018-07-05T21:02:05.167Z,59.18
2018-07-05T21:04:44.770Z,59.70
2018-07-05T21:07:24.345Z,59.65
2018-07-05T21:10:03.906Z,60.22
2018-07-05T21:12:43.545Z,59.90
2018-07-05T21:15:23.277Z,60.58
2018-07-05T21:18:03.139Z,60.83
2018-07-05T21:20:42.915Z,60.10
2018-07-05T21:23:22.497Z,61.71
2018-07-05T21:26:02.252Z,61.08
2018-07-05T21:28:41.976Z,61.86
2018-07-05T21:31:21.658Z,61.72
2018-07-05T21:34:01.284Z,61.55
2018-07-05T21:36:41.044Z,61.40
2018-07-05T21:39:21.059Z,61.48
2018-07-05T21:42:00.874Z,62.14
2018-07-05T21:44:40.746Z,62.49
2018-07-05T21:47:20.431Z,62.53
2018-07-05T21:50:00.103Z,62.75
2018-07-05T21:52:39.880Z,62.67
2018-07-05T21:55:19.617Z,62.96
2018-07-05T21:57:59.358Z,62.49
2018-07-05T22:00:39.254Z,63.02
2018-07-05T22:03:19.089Z,63.08
2018-07-05T22:05:58.775Z,62.91
2018-07-05T22:08:38.363Z,64.08
2018-07-05T22:11:17.931Z,63.17
2018-07-05T22:13:57.514Z,63.98
2018-07-05T22:16:41.371Z,63.42
2018-07-05T22:19:26.637Z,63.46
2018-07-05T22:22:11.689Z,64.16
2018-07-05T22:24:56.712Z,63.60
2018-07-05T22:27:41.698Z,63.98
2018-07-05T22:30:26.746Z,65.59
2018-07-05T22:33:06.351Z,65.82
2018-07-05T22:35:46.073Z,66.23
2018-07-05T22:38:25.777Z,66.44
2018-07-05T22:41:05.578Z,65.80
2018-07-05T22:43:45.399Z,65.90
2018-07-05T22:46:25.079Z,65.38
2018-07-05T22:49:04.709Z,66.28
2018-07-05T22:51:44.319Z,66.07
2018-07-05T22:54:23.987Z,66.77
2018-07-05T22:57:03.569Z,67.39
2018-07-05T22:59:43.226Z,67.88
2018-07-05T23:02:22.918Z,69.15
2018-07-05T23:05:02.547Z,69.76
2018-07-05T23:07:42.186Z,69.82
2018-07-05T23:10:21.929Z,70.20
2018-07-05T23:13:01.607Z,70.17
2018-07-05T23:15:41.329Z,69.50
2018-07-05T23:18:21.174Z,70.48
2018-07-05T23:21:00.870Z,70.41
2018-07-05T23:23:40.518Z,70.93
2018-07-05T23:26:20.299Z,70.80
2018-07-05T23:29:00.138Z,71.20
2018-07-05T23:31:39.905Z,69.71
2018-07-05T23:34:19.418Z,71.26
2018-07-05T23:36:59.431Z,71.08
2018-07-05T23:39:39.293Z,71.28
2018-07-05T23:42:19.083Z,71.39
2018-07-05T23:44:58.954Z,71.62
2018-07-05T23:47:38.666Z,71.34
2018-07-05T23:50:18.858Z,71.91
2018-07-05T23:52:58.522Z,72.19
2018-07-05T23:55:38.301Z,71.68
2018-07-05T23:58:17.838Z,71.38
